Zanesville, OH

1:10 AM EST on December 06, 2016 (GMT -0500)
APRSWXNET | | Change Station

Elev 839 ft 39.95 °N, 82.00 °W | Updated 36 minutes ago

Clear
Clear
31 °F
Feels Like 31 °F
N
2
Wind Variable Wind from NE
Gusts 0.0 mph

Today
High -- | Low -- °F
--% Chance of Precip.
Yesterday
High -- | Low -- °F
Precip. -- in
Pressure 30.01 in
Visibility 10.0 miles
Clouds Clear
Windchill 31 °F
Dew Point 28 °F
Humidity 88%
Rainfall in
Snow Depth Not available.
7:35 AM 5:02 PM
Waxing Crescent, 38% visible
METAR KZZV 060553Z AUTO 07005KT 10SM CLR 01/M02 A2999 RMK AO2 SLP161 T00111022 10028 21006 56020
Pressure 30.01 in
Visibility 10.0 miles
Clouds Clear
Windchill 31 °F
Dew Point 28 °F
Humidity 88%
Rainfall in
Snow Depth Not available.
7:35 AM 5:02 PM
Waxing Crescent, 38% visible
METAR KZZV 060553Z AUTO 07005KT 10SM CLR 01/M02 A2999 RMK AO2 SLP161 T00111022 10028 21006 56020

10-Day Weather Forecast

Almanac

Astronomy

Dec. 06, 2016 Rise Set
Actual Time
Civil Twilight
Nautical Twilight
Astronomical Twilight
Moon
Length of Visible Light
Length of Day
Tomorrow will be .
, % of the Moon is Illuminated

Today's Extremes

State Highs State Lows

Community

WunderPhotos

Upload Photos

1,955,931 photos uploaded!

WunderBlog® & News

Nearby

Air Quality

  Air Quality AQ Index Pollutant
Not available.

Snow Depth

Station Depth Elevation

Earthquake Activity

City Distance Mag. Time & Date
Minimum magnitude displayed is 2.5.

Coastal Water Temperatures

Place Temperature

Stations

Nearby Weather Stations

Station Location Temp. Windchill Dew Point Humidity Wind Precip. Elev Updated Type
                   

Watches & Warnings

There are currently no watches in effect.